createdAt,value
2023-01-19T00:02:15.707Z,0.24
2023-01-19T00:04:42.618Z,0.28
2023-01-19T00:07:19.003Z,0.36
2023-01-19T00:09:50.428Z,0.40
2023-01-19T00:12:18.128Z,0.43
2023-01-19T00:15:08.014Z,0.46
2023-01-19T00:17:41.182Z,0.47
2023-01-19T00:20:09.100Z,0.51
2023-01-19T00:22:36.019Z,0.55
2023-01-19T00:25:03.562Z,0.57
2023-01-19T00:27:40.788Z,0.58
2023-01-19T00:30:11.050Z,0.60
2023-01-19T00:32:38.352Z,0.63
2023-01-19T00:35:05.765Z,0.65
2023-01-19T00:37:32.660Z,0.63
2023-01-19T00:39:59.442Z,0.66
2023-01-19T00:42:41.772Z,0.70
2023-01-19T00:45:12.129Z,0.73
2023-01-19T00:47:41.908Z,0.81
2023-01-19T00:50:16.655Z,0.84
2023-01-19T00:52:45.549Z,0.93
2023-01-19T00:55:14.154Z,0.93
2023-01-19T00:57:41.709Z,0.94
2023-01-19T01:00:12.557Z,0.97
2023-01-19T01:02:44.805Z,0.96
2023-01-19T01:05:12.438Z,0.96
2023-01-19T01:07:45.578Z,0.98
2023-01-19T01:10:17.889Z,0.98
2023-01-19T01:12:56.353Z,0.98
2023-01-19T01:15:36.199Z,0.99
2023-01-19T01:18:07.410Z,1.01
2023-01-19T01:20:34.900Z,1.03
2023-01-19T01:23:02.346Z,1.06
2023-01-19T01:25:31.086Z,1.07
2023-01-19T01:27:57.999Z,1.04
2023-01-19T01:30:24.806Z,1.04
2023-01-19T01:32:51.652Z,1.06
2023-01-19T01:35:18.663Z,1.11
2023-01-19T01:37:45.542Z,1.08
2023-01-19T01:40:16.281Z,1.03
2023-01-19T01:42:43.286Z,1.03
2023-01-19T01:45:29.202Z,1.03
2023-01-19T01:47:58.889Z,1.04
2023-01-19T01:50:28.432Z,1.03
2023-01-19T01:53:09.896Z,1.09
2023-01-19T01:55:39.143Z,1.09
2023-01-19T01:58:07.258Z,1.15
2023-01-19T02:00:54.323Z,1.17
2023-01-19T02:03:25.586Z,1.17
2023-01-19T02:05:54.042Z,1.16
2023-01-19T02:08:42.461Z,1.21
2023-01-19T02:11:28.022Z,1.23
2023-01-19T02:13:54.905Z,1.22
2023-01-19T02:16:21.904Z,1.23
2023-01-19T02:18:48.785Z,1.24
2023-01-19T02:21:20.286Z,1.24
2023-01-19T02:23:51.862Z,1.29
2023-01-19T02:26:26.004Z,1.31
2023-01-19T02:28:58.145Z,1.36
2023-01-19T02:31:25.916Z,1.34
2023-01-19T02:33:53.021Z,1.37
2023-01-19T02:36:22.238Z,1.38
2023-01-19T02:38:49.513Z,1.42
2023-01-19T02:41:18.520Z,1.45
2023-01-19T02:43:45.635Z,1.42
2023-01-19T02:46:13.481Z,1.42
2023-01-19T02:48:40.335Z,1.41
2023-01-19T02:51:24.131Z,1.46
2023-01-19T02:53:59.576Z,1.48
2023-01-19T02:56:50.669Z,1.50
2023-01-19T02:59:23.784Z,1.52
2023-01-19T03:01:50.943Z,1.53
2023-01-19T03:04:30.082Z,1.49
2023-01-19T03:07:15.903Z,1.53
2023-01-19T03:09:50.934Z,1.54
2023-01-19T03:12:27.074Z,1.51
2023-01-19T03:14:57.589Z,1.51
2023-01-19T03:17:25.528Z,1.54
2023-01-19T03:19:52.910Z,1.51
2023-01-19T03:22:24.397Z,1.52
2023-01-19T03:24:53.748Z,1.57
2023-01-19T03:27:22.969Z,1.59
2023-01-19T03:30:10.025Z,1.59
2023-01-19T03:32:41.223Z,1.62
2023-01-19T03:35:11.765Z,1.62
2023-01-19T03:37:41.430Z,1.60
2023-01-19T03:40:09.144Z,1.68
2023-01-19T03:42:37.095Z,1.70
2023-01-19T03:45:04.846Z,1.72
2023-01-19T03:47:31.816Z,1.75
2023-01-19T03:50:02.900Z,1.78
2023-01-19T03:52:30.506Z,1.77
2023-01-19T03:54:57.484Z,1.83
2023-01-19T03:57:24.463Z,1.83
2023-01-19T03:59:51.591Z,1.88
2023-01-19T04:02:18.637Z,1.90
2023-01-19T04:04:45.826Z,1.90
2023-01-19T04:07:12.728Z,1.94
2023-01-19T04:09:39.622Z,1.96
2023-01-19T04:12:06.618Z,1.92
2023-01-19T04:14:34.261Z,1.92
2023-01-19T04:17:01.306Z,1.93
2023-01-19T04:19:28.155Z,1.93
2023-01-19T04:21:55.986Z,1.94
2023-01-19T04:24:22.827Z,1.93
2023-01-19T04:26:51.894Z,1.95
2023-01-19T04:29:18.701Z,1.99
2023-01-19T04:31:45.676Z,1.99
2023-01-19T04:34:12.561Z,1.96
2023-01-19T04:36:41.004Z,2.01
2023-01-19T04:39:09.189Z,1.97
2023-01-19T04:41:36.053Z,1.95
2023-01-19T04:44:03.455Z,1.94
2023-01-19T04:46:31.465Z,1.96
2023-01-19T04:48:58.309Z,1.97
2023-01-19T04:51:25.186Z,1.98
2023-01-19T04:53:52.133Z,2.02
2023-01-19T04:56:18.933Z,2.01
2023-01-19T04:58:45.813Z,2.03
2023-01-19T05:01:12.859Z,2.03
2023-01-19T05:03:41.204Z,2.03
2023-01-19T05:06:09.017Z,2.04
2023-01-19T05:08:37.079Z,2.09
2023-01-19T05:11:04.091Z,2.05
2023-01-19T05:13:30.958Z,2.05
2023-01-19T05:15:57.907Z,2.02
2023-01-19T05:18:24.879Z,2.05
2023-01-19T05:20:51.705Z,2.08
2023-01-19T05:23:18.637Z,2.06
2023-01-19T05:25:45.683Z,2.06
2023-01-19T05:28:13.050Z,2.05
2023-01-19T05:30:41.136Z,2.08
2023-01-19T05:33:09.381Z,2.09
2023-01-19T05:35:36.742Z,2.06
2023-01-19T05:38:04.312Z,2.09
2023-01-19T05:40:31.842Z,2.12
2023-01-19T05:43:02.101Z,2.09
2023-01-19T05:45:29.323Z,2.09
2023-01-19T05:47:56.380Z,2.13
2023-01-19T05:50:25.878Z,2.12
2023-01-19T05:52:53.964Z,2.14
2023-01-19T05:55:21.496Z,2.15
2023-01-19T05:57:49.721Z,2.17
2023-01-19T06:00:17.013Z,2.17
2023-01-19T06:02:44.364Z,2.14
2023-01-19T06:05:11.586Z,2.10
2023-01-19T06:07:39.241Z,2.10
2023-01-19T06:10:06.573Z,2.09
2023-01-19T06:12:33.497Z,2.07
2023-01-19T06:15:00.449Z,2.01
2023-01-19T06:17:29.662Z,1.98
2023-01-19T06:19:56.829Z,1.89
2023-01-19T06:22:24.665Z,1.97
2023-01-19T06:24:51.953Z,1.95
2023-01-19T06:27:18.970Z,1.93
2023-01-19T06:29:45.778Z,1.89
2023-01-19T06:32:13.179Z,1.89
2023-01-19T06:34:43.706Z,1.88
2023-01-19T06:37:14.029Z,1.91
2023-01-19T06:39:41.427Z,1.87
2023-01-19T06:42:08.945Z,1.88
2023-01-19T06:44:35.903Z,1.83
2023-01-19T06:47:14.866Z,1.85
2023-01-19T06:49:42.796Z,1.88
2023-01-19T06:52:15.992Z,1.88
2023-01-19T06:54:43.748Z,1.89
2023-01-19T06:57:13.337Z,1.90
2023-01-19T06:59:40.188Z,1.85
2023-01-19T07:02:26.997Z,1.87
2023-01-19T07:04:53.953Z,1.89
2023-01-19T07:07:20.898Z,1.87
2023-01-19T07:09:48.029Z,1.88
2023-01-19T07:12:15.287Z,1.84
2023-01-19T07:14:42.923Z,1.85
2023-01-19T07:17:10.056Z,1.82
2023-01-19T07:19:36.994Z,1.86
2023-01-19T07:22:04.167Z,1.85
2023-01-19T07:24:31.569Z,1.83
2023-01-19T07:26:58.543Z,1.83
2023-01-19T07:29:25.890Z,1.83
2023-01-19T07:31:54.837Z,1.77
2023-01-19T07:34:21.909Z,1.81
2023-01-19T07:36:49.151Z,1.83
2023-01-19T07:39:16.300Z,1.83
2023-01-19T07:41:43.318Z,1.82
2023-01-19T07:44:10.259Z,1.85
2023-01-19T07:46:37.267Z,1.83
2023-01-19T07:49:04.168Z,1.86
2023-01-19T07:51:31.282Z,1.84
2023-01-19T07:53:58.505Z,1.88
2023-01-19T07:56:28.143Z,1.86
2023-01-19T07:58:55.270Z,1.92
2023-01-19T08:01:22.601Z,1.87
2023-01-19T08:03:49.969Z,1.88
2023-01-19T08:06:21.966Z,1.90
2023-01-19T08:08:49.077Z,1.91
2023-01-19T08:11:17.342Z,1.92
2023-01-19T08:13:47.177Z,1.95
2023-01-19T08:16:14.208Z,1.97
2023-01-19T08:18:41.065Z,2.05
2023-01-19T08:21:08.060Z,2.09
2023-01-19T08:23:35.163Z,2.10
2023-01-19T08:26:02.166Z,2.17
2023-01-19T08:28:29.160Z,2.19
2023-01-19T08:30:56.059Z,2.21
2023-01-19T08:33:23.446Z,2.19
2023-01-19T08:35:51.576Z,2.23
2023-01-19T08:38:22.914Z,2.19
2023-01-19T08:40:49.899Z,2.26
2023-01-19T08:43:17.347Z,2.28
2023-01-19T08:45:49.158Z,2.26
2023-01-19T08:48:17.314Z,2.29
2023-01-19T08:50:46.306Z,2.32
2023-01-19T08:53:13.232Z,2.34
2023-01-19T08:55:40.854Z,2.23
2023-01-19T08:58:08.944Z,2.45
2023-01-19T09:00:39.570Z,2.47
2023-01-19T09:03:07.635Z,2.51
2023-01-19T09:05:37.528Z,2.54
2023-01-19T09:08:06.381Z,2.62
2023-01-19T09:10:36.514Z,2.62
2023-01-19T09:13:08.739Z,2.67
2023-01-19T09:15:38.480Z,2.69
2023-01-19T09:18:07.025Z,2.72
2023-01-19T09:20:36.267Z,2.72
2023-01-19T09:23:04.130Z,2.74
2023-01-19T09:25:34.270Z,2.83
2023-01-19T09:28:02.519Z,2.83
2023-01-19T09:30:29.810Z,2.91
2023-01-19T09:33:01.272Z,2.91
2023-01-19T09:35:28.271Z,2.94
2023-01-19T09:37:56.419Z,2.91
2023-01-19T09:40:24.534Z,3.02
2023-01-19T09:43:05.243Z,3.04
2023-01-19T09:45:39.330Z,3.01
2023-01-19T09:48:20.670Z,3.03
2023-01-19T09:50:48.604Z,3.14
2023-01-19T09:53:36.264Z,3.21
2023-01-19T09:56:03.331Z,3.25
2023-01-19T09:58:30.698Z,3.29
2023-01-19T10:01:03.058Z,3.34
2023-01-19T10:03:31.838Z,3.33
2023-01-19T10:06:03.375Z,3.34
2023-01-19T10:08:38.749Z,3.44
2023-01-19T10:11:13.361Z,3.53
2023-01-19T10:13:48.912Z,3.49
2023-01-19T10:16:35.463Z,3.48
2023-01-19T10:19:23.437Z,3.48
2023-01-19T10:21:52.524Z,3.51
2023-01-19T10:24:24.295Z,3.54
2023-01-19T10:26:53.729Z,3.47
2023-01-19T10:29:34.711Z,3.39
2023-01-19T10:32:18.628Z,3.34
2023-01-19T10:34:46.516Z,3.30
2023-01-19T10:37:14.185Z,3.38
2023-01-19T10:39:42.938Z,3.41
2023-01-19T10:42:13.991Z,3.54
2023-01-19T10:44:43.388Z,3.63
2023-01-19T10:47:19.412Z,3.76
2023-01-19T10:49:47.255Z,3.93
2023-01-19T10:52:31.698Z,4.09
2023-01-19T10:55:01.168Z,4.22
2023-01-19T10:57:31.405Z,4.35
2023-01-19T10:59:59.565Z,4.44
2023-01-19T11:02:34.347Z,4.46
2023-01-19T11:05:24.397Z,4.64
2023-01-19T11:07:51.754Z,4.73
2023-01-19T11:10:26.165Z,4.84
2023-01-19T11:13:03.221Z,4.67
2023-01-19T11:15:32.799Z,4.80
2023-01-19T11:18:00.595Z,4.75
2023-01-19T11:20:35.474Z,4.75
2023-01-19T11:23:19.023Z,4.94
2023-01-19T11:25:48.134Z,5.08
2023-01-19T11:28:38.948Z,5.15
2023-01-19T11:31:15.569Z,5.33
2023-01-19T11:33:49.861Z,5.30
2023-01-19T11:36:18.525Z,5.10
2023-01-19T11:38:49.608Z,5.14
2023-01-19T11:41:18.798Z,5.03
2023-01-19T11:43:49.376Z,5.01
2023-01-19T11:46:17.819Z,4.92
2023-01-19T11:49:02.302Z,4.68
2023-01-19T11:51:38.594Z,4.62
2023-01-19T11:54:35.092Z,4.58
2023-01-19T11:57:10.925Z,4.44
2023-01-19T11:59:42.822Z,4.50
2023-01-19T12:02:17.778Z,4.41
2023-01-19T12:04:45.227Z,4.51
2023-01-19T12:07:14.960Z,4.59
2023-01-19T12:09:51.816Z,4.97
2023-01-19T12:12:32.980Z,5.00
2023-01-19T12:15:04.266Z,4.76
2023-01-19T12:17:37.225Z,4.73
2023-01-19T12:20:09.220Z,4.57
2023-01-19T12:22:41.782Z,4.41
2023-01-19T12:25:11.951Z,4.20
2023-01-19T12:27:46.359Z,4.19
2023-01-19T12:30:18.853Z,4.15
2023-01-19T12:32:46.719Z,4.09
2023-01-19T12:35:33.170Z,4.03
2023-01-19T12:38:00.533Z,3.97
2023-01-19T12:40:29.176Z,3.97
2023-01-19T12:43:05.351Z,3.99
2023-01-19T12:45:34.952Z,3.99
2023-01-19T12:48:03.089Z,3.97
2023-01-19T12:50:36.243Z,3.87
2023-01-19T12:53:04.716Z,3.76
2023-01-19T12:55:37.391Z,3.72
2023-01-19T12:58:05.029Z,3.71
2023-01-19T13:00:36.587Z,3.76
2023-01-19T13:03:18.887Z,3.75
2023-01-19T13:05:56.063Z,3.80
2023-01-19T13:08:43.289Z,3.76
2023-01-19T13:11:15.475Z,3.74
2023-01-19T13:13:49.095Z,3.71
2023-01-19T13:16:21.269Z,3.74
2023-01-19T13:19:00.634Z,3.69
2023-01-19T13:21:32.607Z,3.74
2023-01-19T13:24:02.043Z,3.73
2023-01-19T13:26:30.602Z,3.81
2023-01-19T13:29:22.144Z,3.81
2023-01-19T13:31:49.755Z,3.79
2023-01-19T13:34:22.556Z,3.72
2023-01-19T13:36:53.681Z,3.68
2023-01-19T13:39:26.872Z,3.74
2023-01-19T13:41:54.962Z,3.76
2023-01-19T13:44:33.180Z,3.81
2023-01-19T13:47:03.247Z,3.78
2023-01-19T13:49:39.837Z,3.80
2023-01-19T13:52:19.890Z,3.89
2023-01-19T13:54:55.013Z,3.86
2023-01-19T13:57:27.054Z,3.85
2023-01-19T14:00:06.843Z,3.84
2023-01-19T14:02:33.908Z,3.86
2023-01-19T14:05:21.237Z,3.80
2023-01-19T14:07:48.728Z,3.81
2023-01-19T14:10:16.731Z,3.78
2023-01-19T14:12:58.521Z,3.76
2023-01-19T14:15:26.742Z,3.74
2023-01-19T14:18:09.163Z,3.77
2023-01-19T14:20:39.211Z,3.81
2023-01-19T14:23:06.521Z,3.81
2023-01-19T14:25:36.309Z,3.85
2023-01-19T14:28:22.885Z,3.86
2023-01-19T14:30:54.310Z,3.90
2023-01-19T14:33:41.499Z,3.91
2023-01-19T14:36:17.498Z,3.93
2023-01-19T14:38:47.040Z,3.91
2023-01-19T14:41:24.431Z,3.84
2023-01-19T14:43:51.371Z,3.80
2023-01-19T14:46:19.753Z,3.83
2023-01-19T14:48:50.424Z,3.84
2023-01-19T14:51:32.339Z,3.81
2023-01-19T14:54:01.033Z,3.80
2023-01-19T14:56:33.832Z,3.77
2023-01-19T14:59:01.605Z,3.72
2023-01-19T15:01:28.996Z,3.71
2023-01-19T15:03:56.951Z,3.72
2023-01-19T15:06:25.501Z,3.71
2023-01-19T15:09:05.741Z,3.73
2023-01-19T15:11:35.209Z,3.68
2023-01-19T15:14:03.044Z,3.70
2023-01-19T15:16:31.873Z,3.68
2023-01-19T15:18:59.234Z,3.64
2023-01-19T15:21:29.056Z,3.60
2023-01-19T15:24:00.880Z,3.62
2023-01-19T15:26:28.789Z,3.58
2023-01-19T15:29:03.164Z,3.55
2023-01-19T15:31:30.272Z,3.59
2023-01-19T15:33:57.185Z,3.57
2023-01-19T15:36:27.451Z,3.56
2023-01-19T15:38:56.074Z,3.53
2023-01-19T15:41:23.994Z,3.49
2023-01-19T15:43:52.034Z,3.43
2023-01-19T15:46:27.145Z,3.39
2023-01-19T15:48:55.590Z,3.41
2023-01-19T15:51:26.192Z,3.35
2023-01-19T15:54:21.701Z,3.33
2023-01-19T15:56:48.590Z,3.30
2023-01-19T15:59:15.778Z,3.21
2023-01-19T16:01:43.259Z,3.14
2023-01-19T16:04:17.846Z,3.13
2023-01-19T16:06:45.466Z,3.07
2023-01-19T16:09:16.939Z,3.04
2023-01-19T16:11:44.534Z,3.03
2023-01-19T16:14:11.748Z,2.96
2023-01-19T16:16:42.020Z,2.93
2023-01-19T16:19:10.030Z,2.89
2023-01-19T16:21:37.598Z,2.84
2023-01-19T16:24:04.847Z,2.78
2023-01-19T16:26:36.661Z,2.70
2023-01-19T16:29:08.885Z,2.69
2023-01-19T16:31:39.956Z,2.65
2023-01-19T16:34:07.800Z,2.63
2023-01-19T16:36:35.882Z,2.54
2023-01-19T16:39:08.033Z,2.43
2023-01-19T16:41:37.218Z,2.38
2023-01-19T16:44:08.261Z,2.35
2023-01-19T16:46:37.146Z,2.38
2023-01-19T16:49:05.353Z,2.31
2023-01-19T16:51:33.634Z,2.26
2023-01-19T16:54:00.582Z,2.18
2023-01-19T16:56:31.580Z,2.16
2023-01-19T16:59:03.714Z,2.11
2023-01-19T17:01:30.666Z,2.06
2023-01-19T17:03:59.300Z,2.05
2023-01-19T17:06:28.982Z,1.99
2023-01-19T17:08:56.464Z,1.96
2023-01-19T17:11:24.959Z,1.99
2023-01-19T17:14:05.335Z,1.93
2023-01-19T17:16:34.198Z,1.96
2023-01-19T17:19:02.334Z,1.91
2023-01-19T17:21:29.581Z,1.83
2023-01-19T17:23:57.237Z,1.90
2023-01-19T17:26:28.582Z,1.89
2023-01-19T17:28:58.299Z,1.89
2023-01-19T17:31:26.040Z,1.89
2023-01-19T17:33:54.013Z,1.87
2023-01-19T17:36:23.069Z,1.87
2023-01-19T17:38:57.635Z,1.87
2023-01-19T17:41:28.442Z,1.83
2023-01-19T17:43:55.697Z,1.83
2023-01-19T17:46:25.791Z,1.82
2023-01-19T17:49:03.984Z,1.79
2023-01-19T17:51:32.097Z,1.76
2023-01-19T17:53:59.453Z,1.77
2023-01-19T17:56:29.594Z,1.77
2023-01-19T17:58:58.330Z,1.77
2023-01-19T18:01:26.571Z,1.71
2023-01-19T18:03:55.839Z,1.73
2023-01-19T18:06:24.216Z,1.68
2023-01-19T18:08:53.107Z,1.67
2023-01-19T18:11:21.511Z,1.66
2023-01-19T18:13:49.920Z,1.67
2023-01-19T18:16:20.348Z,1.66
2023-01-19T18:18:53.453Z,1.66
2023-01-19T18:21:21.927Z,1.63
2023-01-19T18:23:53.306Z,1.64
2023-01-19T18:26:23.172Z,1.64
2023-01-19T18:28:50.416Z,1.64
2023-01-19T18:31:18.935Z,1.60
2023-01-19T18:33:47.215Z,1.61
2023-01-19T18:36:15.697Z,1.59
2023-01-19T18:38:43.127Z,1.57
2023-01-19T18:41:11.700Z,1.51
2023-01-19T18:43:40.339Z,1.52
2023-01-19T18:46:07.926Z,1.49
2023-01-19T18:48:37.347Z,1.46
2023-01-19T18:51:09.472Z,1.42
2023-01-19T18:53:37.350Z,1.42
2023-01-19T18:56:06.043Z,1.40
2023-01-19T18:58:33.545Z,1.37
2023-01-19T19:01:00.893Z,1.37
2023-01-19T19:03:27.958Z,1.34
2023-01-19T19:05:55.064Z,1.26
2023-01-19T19:08:25.017Z,1.22
2023-01-19T19:10:54.356Z,1.22
2023-01-19T19:13:22.136Z,1.21
2023-01-19T19:15:49.183Z,1.17
2023-01-19T19:18:16.382Z,1.12
2023-01-19T19:20:43.813Z,1.09
2023-01-19T19:23:11.672Z,1.06
2023-01-19T19:25:38.807Z,1.02
2023-01-19T19:28:06.241Z,1.04
2023-01-19T19:30:34.754Z,0.99
2023-01-19T19:33:02.197Z,0.97
2023-01-19T19:35:30.555Z,0.96
2023-01-19T19:37:57.775Z,0.97
2023-01-19T19:40:25.670Z,1.04
2023-01-19T19:42:52.777Z,1.03
2023-01-19T19:45:20.271Z,1.12
2023-01-19T19:47:47.166Z,1.18
2023-01-19T19:50:14.515Z,1.20
2023-01-19T19:52:42.128Z,1.22
2023-01-19T19:55:09.781Z,1.23
2023-01-19T19:57:36.908Z,1.22
2023-01-19T20:00:05.168Z,1.25
2023-01-19T20:02:32.557Z,1.26
2023-01-19T20:04:59.758Z,1.23
2023-01-19T20:07:26.735Z,1.24
2023-01-19T20:09:55.043Z,1.21
2023-01-19T20:12:22.176Z,1.19
2023-01-19T20:14:49.330Z,1.19
2023-01-19T20:17:16.143Z,1.18
2023-01-19T20:19:44.380Z,1.17
2023-01-19T20:22:11.350Z,1.16
2023-01-19T20:24:38.323Z,1.14
2023-01-19T20:27:05.492Z,1.14
2023-01-19T20:29:32.376Z,1.11
2023-01-19T20:31:59.529Z,1.14
2023-01-19T20:34:28.191Z,1.12
2023-01-19T20:36:55.763Z,1.10
2023-01-19T20:39:23.651Z,1.07
2023-01-19T20:41:51.512Z,1.07
2023-01-19T20:44:20.289Z,1.06
2023-01-19T20:46:48.329Z,1.03
2023-01-19T20:49:16.386Z,1.02
2023-01-19T20:51:45.433Z,1.00
2023-01-19T20:54:13.793Z,1.00
2023-01-19T20:56:41.750Z,0.97
2023-01-19T20:59:09.465Z,0.95
2023-01-19T21:01:36.470Z,0.95
2023-01-19T21:04:03.742Z,0.95
2023-01-19T21:06:31.256Z,0.96
2023-01-19T21:08:59.229Z,0.98
2023-01-19T21:11:26.563Z,0.97
2023-01-19T21:13:56.622Z,0.98
2023-01-19T21:16:24.391Z,1.01
2023-01-19T21:18:52.187Z,0.98
2023-01-19T21:21:29.820Z,1.00
2023-01-19T21:23:57.966Z,0.98
2023-01-19T21:26:24.900Z,1.00
2023-01-19T21:28:51.882Z,0.97
2023-01-19T21:31:18.847Z,0.97
2023-01-19T21:33:45.762Z,0.94
2023-01-19T21:36:12.688Z,0.95
2023-01-19T21:38:40.005Z,0.92
2023-01-19T21:41:08.185Z,0.92
2023-01-19T21:43:35.981Z,0.86
2023-01-19T21:46:10.297Z,0.85
2023-01-19T21:48:37.335Z,0.82
2023-01-19T21:51:04.395Z,0.77
2023-01-19T21:53:31.363Z,0.77
2023-01-19T21:55:59.047Z,0.75
2023-01-19T21:58:26.930Z,0.75
2023-01-19T22:01:02.258Z,0.74
2023-01-19T22:03:31.973Z,0.73
2023-01-19T22:06:06.060Z,0.73
2023-01-19T22:08:33.180Z,0.76
2023-01-19T22:11:07.248Z,0.75
2023-01-19T22:13:34.882Z,0.76
2023-01-19T22:16:08.638Z,0.76
2023-01-19T22:18:36.109Z,0.76
2023-01-19T22:21:16.760Z,0.71
2023-01-19T22:23:43.862Z,0.69
2023-01-19T22:26:11.322Z,0.70
2023-01-19T22:28:38.237Z,0.71
2023-01-19T22:31:06.975Z,0.66
2023-01-19T22:33:34.110Z,0.63
2023-01-19T22:36:14.882Z,0.62
2023-01-19T22:38:42.635Z,0.57
2023-01-19T22:41:13.313Z,0.56
2023-01-19T22:43:40.255Z,0.55
2023-01-19T22:46:08.707Z,0.56
2023-01-19T22:48:36.100Z,0.53
2023-01-19T22:51:03.488Z,0.54
2023-01-19T22:53:31.223Z,0.53
2023-01-19T22:55:58.192Z,0.52
2023-01-19T22:58:25.020Z,0.55
2023-01-19T23:00:51.911Z,0.48
2023-01-19T23:03:19.452Z,0.49
2023-01-19T23:05:46.458Z,0.51
2023-01-19T23:08:13.424Z,0.51
2023-01-19T23:10:40.710Z,0.54
2023-01-19T23:13:07.833Z,0.56
2023-01-19T23:15:34.953Z,0.54
2023-01-19T23:18:01.860Z,0.48
2023-01-19T23:20:28.872Z,0.49
2023-01-19T23:22:56.000Z,0.51
2023-01-19T23:25:23.239Z,0.50
2023-01-19T23:27:52.711Z,0.50
2023-01-19T23:30:19.930Z,0.50
2023-01-19T23:32:47.763Z,0.49
2023-01-19T23:35:15.241Z,0.51
2023-01-19T23:37:42.335Z,0.56
2023-01-19T23:40:10.192Z,0.55
2023-01-19T23:42:37.048Z,0.51
2023-01-19T23:45:04.253Z,0.49
2023-01-19T23:47:32.724Z,0.52
2023-01-19T23:50:00.578Z,0.51
2023-01-19T23:52:27.391Z,0.52
2023-01-19T23:54:55.535Z,0.52
2023-01-19T23:57:22.339Z,0.52
2023-01-19T23:59:49.417Z,0.51
